EGCN/DSA METAR and TAF weather

Enter ICAO airport designator
Station Type Date Time Source
EGCN METAR 2018/10/16 21:20 UTC NOAA

EGCN 162120Z 20010KT CAVOK 14/13 Q1015


Station Type Date Time Source
EGCN Decoded METAR 2018/10/16 21:20 UTC NOAA

Station name not available
Oct 16, 2018 - 05:20 PM EDT / 2018.10.16 2120 UTC
Wind: from the SSW (200 degrees) at 12 MPH (10 KT):0
Visibility: greater than 7 mile(s):0
Temperature: 57 F (14 C)
Dew Point: 55 F (13 C)
Relative Humidity: 93%
Pressure (altimeter): 29.97 in. Hg (1015 hPa)
ob: EGCN 162120Z 20010KT CAVOK 14/13 Q1015
cycle: 21

Station Type Date Time Source
EGCN TAF 2018/10/16 20:00 UTC NOAA

TAF
AMD EGCN 162007Z 1620/1718 18012KT 9999 SCT025
TEMPO 1620/1622 8000 PROB30
TEMPO 1622/1704 9000 -RA BKN009
BECMG 1702/1705 23002KT PROB30 1705/1709 4000 BR


Example: see airport list